Time,TemperatureF,DewpointF,PressureIn,WindDirection,WindDirectionDegrees,WindSpeedMPH,WindSpeedGustMPH,Humidity,HourlyPrecipIn,Conditions,Clouds,dailyrainin,SoftwareType,DateUTC
2013-07-07 00:09:00,73.8,73.2,30.05,NE,45,2.2,-999.0,98,-99.99,,,0.00,Acu-Link.com,2013-07-07 04:09:00,
2013-07-07 00:24:00,73.9,73.3,30.05,NE,45,1.7,-999.0,98,-99.99,,,0.00,Acu-Link.com,2013-07-07 04:24:00,
2013-07-07 00:39:00,73.9,73.3,30.04,NE,45,2.7,-999.0,98,-99.99,,,0.00,Acu-Link.com,2013-07-07 04:39:00,
2013-07-07 00:54:00,73.9,73.3,30.04,West,270,2.2,-999.0,98,-99.99,,,0.00,Acu-Link.com,2013-07-07 04:54:00,
2013-07-07 01:09:00,73.9,73.3,30.04,NNW,337,2.2,-999.0,98,-99.99,,,0.00,Acu-Link.com,2013-07-07 05:09:00,
2013-07-07 01:24:00,73.8,73.2,30.04,NE,45,1.1,-999.0,98,-99.99,,,0.02,Acu-Link.com,2013-07-07 05:24:00,
2013-07-07 01:39:00,73.6,73.0,30.03,ENE,67,0.0,-999.0,98,-99.99,,,0.02,Acu-Link.com,2013-07-07 05:39:00,
2013-07-07 01:55:00,73.2,72.6,30.03,ESE,112,0.0,-999.0,98,-99.99,,,0.02,Acu-Link.com,2013-07-07 05:55:00,
2013-07-07 02:10:00,72.7,72.1,30.03,NNE,22,2.2,-999.0,98,-99.99,,,0.03,Acu-Link.com,2013-07-07 06:10:00,
2013-07-07 02:25:00,70.9,70.3,30.03,East,90,1.7,-999.0,98,-99.99,,,0.22,Acu-Link.com,2013-07-07 06:25:00,
2013-07-07 02:40:00,70.0,69.4,30.03,ESE,112,2.2,-999.0,98,-99.99,,,0.34,Acu-Link.com,2013-07-07 06:40:00,
2013-07-07 02:55:00,69.8,69.2,30.04,ESE,112,0.0,-999.0,98,-99.99,,,0.58,Acu-Link.com,2013-07-07 06:55:00,
2013-07-07 03:10:00,69.8,69.2,30.04,ENE,67,2.2,-999.0,98,-99.99,,,0.69,Acu-Link.com,2013-07-07 07:10:00,
2013-07-07 03:25:00,69.8,69.2,30.03,ENE,67,0.0,-999.0,98,-99.99,,,0.72,Acu-Link.com,2013-07-07 07:25:00,
2013-07-07 03:40:00,69.8,69.2,30.03,ESE,112,0.0,-999.0,98,-99.99,,,0.73,Acu-Link.com,2013-07-07 07:40:00,
2013-07-07 03:55:00,70.0,69.4,30.03,SSW,202,0.0,-999.0,98,-99.99,,,0.73,Acu-Link.com,2013-07-07 07:55:00,
2013-07-07 04:11:00,70.0,69.4,30.03,ESE,112,0.0,-999.0,98,-99.99,,,0.73,Acu-Link.com,2013-07-07 08:11:00,
2013-07-07 04:26:00,70.0,69.4,30.03,ESE,112,0.0,-999.0,98,-99.99,,,0.73,Acu-Link.com,2013-07-07 08:26:00,
2013-07-07 04:41:00,70.0,69.4,30.03,West,270,0.0,-999.0,98,-99.99,,,0.73,Acu-Link.com,2013-07-07 08:41:00,
2013-07-07 04:57:00,70.3,69.7,30.03,NE,45,0.0,-999.0,98,-99.99,,,0.73,Acu-Link.com,2013-07-07 08:57:00,
2013-07-07 05:12:00,70.3,69.7,30.03,SSE,157,0.0,-999.0,98,-99.99,,,0.77,Acu-Link.com,2013-07-07 09:12:00,
2013-07-07 05:27:00,70.5,69.9,30.03,SW,225,0.0,-999.0,98,-99.99,,,0.82,Acu-Link.com,2013-07-07 09:27:00,
2013-07-07 05:42:00,70.5,69.9,30.02,ESE,112,0.0,-999.0,98,-99.99,,,0.83,Acu-Link.com,2013-07-07 09:42:00,
2013-07-07 05:57:00,70.7,70.1,30.03,SW,225,0.0,-999.0,98,-99.99,,,0.83,Acu-Link.com,2013-07-07 09:57:00,
2013-07-07 06:12:00,70.9,70.3,30.03,East,90,0.0,-999.0,98,-99.99,,,0.83,Acu-Link.com,2013-07-07 10:12:00,
2013-07-07 06:27:00,70.9,70.3,30.03,ESE,112,0.0,-999.0,98,-99.99,,,0.83,Acu-Link.com,2013-07-07 10:27:00,
2013-07-07 06:43:00,70.9,70.3,30.04,North,0,0.0,-999.0,98,-99.99,,,0.83,Acu-Link.com,2013-07-07 10:43:00,
2013-07-07 06:58:00,71.2,70.6,30.04,SE,135,0.0,-999.0,98,-99.99,,,0.83,Acu-Link.com,2013-07-07 10:58:00,
2013-07-07 07:13:00,71.6,71.0,30.04,ESE,112,0.0,-999.0,98,-99.99,,,0.83,Acu-Link.com,2013-07-07 11:13:00,
2013-07-07 07:28:00,72.3,71.7,30.05,WSW,247,0.0,-999.0,98,-99.99,,,0.83,Acu-Link.com,2013-07-07 11:28:00,
2013-07-07 07:43:00,73.0,72.4,30.06,SW,225,0.0,-999.0,98,-99.99,,,0.83,Acu-Link.com,2013-07-07 11:43:00,
2013-07-07 07:58:00,73.4,72.8,30.06,South,180,0.0,-999.0,98,-99.99,,,0.83,Acu-Link.com,2013-07-07 11:58:00,
2013-07-07 08:14:00,73.9,73.3,30.06,NW,315,0.0,-999.0,98,-99.99,,,0.83,Acu-Link.com,2013-07-07 12:14:00,
2013-07-07 08:29:00,75.2,74.6,30.07,South,180,0.0,-999.0,98,-99.99,,,0.83,Acu-Link.com,2013-07-07 12:29:00,
2013-07-07 08:44:00,77.0,76.4,30.07,WNW,292,0.0,-999.0,98,-99.99,,,0.83,Acu-Link.com,2013-07-07 12:44:00,
2013-07-07 08:59:00,77.9,77.3,30.07,SSW,202,0.0,-999.0,98,-99.99,,,0.83,Acu-Link.com,2013-07-07 12:59:00,
2013-07-07 09:15:00,79.2,78.6,30.07,West,270,0.0,-999.0,98,-99.99,,,0.83,Acu-Link.com,2013-07-07 13:15:00,
2013-07-07 09:30:00,81.1,80.5,30.07,West,270,0.0,-999.0,98,-99.99,,,0.83,Acu-Link.com,2013-07-07 13:30:00,
2013-07-07 09:45:00,81.0,80.4,30.07,ESE,112,1.7,-999.0,98,-99.99,,,0.83,Acu-Link.com,2013-07-07 13:45:00,
2013-07-07 10:00:00,83.3,82.7,30.06,ENE,67,0.0,-999.0,98,-99.99,,,0.83,Acu-Link.com,2013-07-07 14:00:00,
2013-07-07 10:15:00,84.9,83.9,30.06,ESE,112,0.0,-999.0,97,-99.99,,,0.83,Acu-Link.com,2013-07-07 14:15:00,
2013-07-07 10:30:00,85.8,84.5,30.06,East,90,4.2,-999.0,96,-99.99,,,0.83,Acu-Link.com,2013-07-07 14:30:00,
2013-07-07 10:45:00,85.3,82.7,30.05,ESE,112,1.1,-999.0,92,-99.99,,,0.83,Acu-Link.com,2013-07-07 14:45:00,
2013-07-07 11:00:00,83.8,80.5,30.06,SSE,157,1.1,-999.0,90,-99.99,,,0.83,Acu-Link.com,2013-07-07 15:00:00,
2013-07-07 11:15:00,84.7,79.3,30.06,East,90,4.2,-999.0,84,-99.99,,,0.83,Acu-Link.com,2013-07-07 15:15:00,
2013-07-07 11:31:00,86.5,80.0,30.06,ESE,112,3.7,-999.0,81,-99.99,,,0.83,Acu-Link.com,2013-07-07 15:31:00,
2013-07-07 11:46:00,88.7,81.7,30.06,SE,135,0.0,-999.0,80,-99.99,,,0.83,Acu-Link.com,2013-07-07 15:46:00,
2013-07-07 12:01:00,88.0,80.6,30.06,West,270,0.0,-999.0,79,-99.99,,,0.83,Acu-Link.com,2013-07-07 16:01:00,
2013-07-07 12:16:00,85.3,78.4,30.06,West,270,0.0,-999.0,80,-99.99,,,0.83,Acu-Link.com,2013-07-07 16:16:00,
2013-07-07 12:31:00,84.9,79.1,30.06,West,270,0.0,-999.0,83,-99.99,,,0.83,Acu-Link.com,2013-07-07 16:31:00,
2013-07-07 12:46:00,85.5,79.4,30.06,West,270,1.1,-999.0,82,-99.99,,,0.83,Acu-Link.com,2013-07-07 16:46:00,
2013-07-07 13:02:00,86.4,78.7,30.07,South,180,0.0,-999.0,78,-99.99,,,0.83,Acu-Link.com,2013-07-07 17:02:00,
2013-07-07 13:17:00,87.3,79.2,30.06,SSE,157,2.7,-999.0,77,-99.99,,,0.83,Acu-Link.com,2013-07-07 17:17:00,
2013-07-07 13:37:00,86.5,78.4,30.06,East,90,4.2,-999.0,77,-99.99,,,0.83,Acu-Link.com,2013-07-07 17:37:00,
2013-07-07 14:02:00,87.8,78.9,30.05,East,90,2.2,-999.0,75,-99.99,,,0.83,Acu-Link.com,2013-07-07 18:02:00,
2013-07-07 14:18:00,87.3,78.8,30.05,WSW,247,0.0,-999.0,76,-99.99,,,0.83,Acu-Link.com,2013-07-07 18:18:00,
2013-07-07 14:37:00,86.0,78.7,30.05,South,180,0.0,-999.0,79,-99.99,,,0.84,Acu-Link.com,2013-07-07 18:37:00,
2013-07-07 14:52:00,87.8,81.2,30.05,WNW,292,0.0,-999.0,81,-99.99,,,0.84,Acu-Link.com,2013-07-07 18:52:00,
2013-07-07 15:07:00,91.2,82.1,30.03,ENE,67,0.0,-999.0,75,-99.99,,,0.84,Acu-Link.com,2013-07-07 19:07:00,
2013-07-07 15:22:00,90.1,79.8,30.02,SSE,157,1.7,-999.0,72,-99.99,,,0.84,Acu-Link.com,2013-07-07 19:22:00,
2013-07-07 15:38:00,89.6,79.8,30.01,SW,225,0.0,-999.0,73,-99.99,,,0.84,Acu-Link.com,2013-07-07 19:38:00,
2013-07-07 15:53:00,88.9,79.5,30.01,West,270,0.0,-999.0,74,-99.99,,,0.84,Acu-Link.com,2013-07-07 19:53:00,
2013-07-07 16:08:00,90.0,79.7,30.01,WSW,247,0.0,-999.0,72,-99.99,,,0.84,Acu-Link.com,2013-07-07 20:08:00,
2013-07-07 16:23:00,88.5,79.1,30.01,NNE,22,0.0,-999.0,74,-99.99,,,0.84,Acu-Link.com,2013-07-07 20:23:00,
2013-07-07 16:38:00,88.0,79.1,30.01,WNW,292,0.0,-999.0,75,-99.99,,,0.84,Acu-Link.com,2013-07-07 20:38:00,
2013-07-07 16:53:00,84.9,76.1,30.01,SW,225,0.0,-999.0,75,-99.99,,,0.84,Acu-Link.com,2013-07-07 20:53:00,
2013-07-07 17:08:00,83.5,75.5,30.01,West,270,0.0,-999.0,77,-99.99,,,0.84,Acu-Link.com,2013-07-07 21:08:00,
2013-07-07 17:23:00,83.7,76.9,30.00,ESE,112,0.0,-999.0,80,-99.99,,,0.84,Acu-Link.com,2013-07-07 21:23:00,
2013-07-07 17:38:00,83.7,76.9,29.99,SW,225,0.0,-999.0,80,-99.99,,,0.84,Acu-Link.com,2013-07-07 21:38:00,
2013-07-07 17:54:00,83.5,76.3,29.99,ENE,67,0.0,-999.0,79,-99.99,,,0.84,Acu-Link.com,2013-07-07 21:54:00,
2013-07-07 18:09:00,84.2,77.0,29.98,SSW,202,0.0,-999.0,79,-99.99,,,0.84,Acu-Link.com,2013-07-07 22:09:00,
2013-07-07 18:24:00,83.5,76.7,29.98,SW,225,0.0,-999.0,80,-99.99,,,0.84,Acu-Link.com,2013-07-07 22:24:00,
2013-07-07 18:39:00,82.8,76.7,29.98,SW,225,0.0,-999.0,82,-99.99,,,0.84,Acu-Link.com,2013-07-07 22:39:00,
2013-07-07 18:54:00,81.7,76.0,29.99,SSW,202,0.0,-999.0,83,-99.99,,,0.84,Acu-Link.com,2013-07-07 22:54:00,
2013-07-07 19:09:00,80.8,76.2,29.99,WSW,247,0.0,-999.0,86,-99.99,,,0.84,Acu-Link.com,2013-07-07 23:09:00,
2013-07-07 19:24:00,79.5,75.6,30.00,West,270,7.8,-999.0,88,-99.99,,,0.84,Acu-Link.com,2013-07-07 23:24:00,
2013-07-07 19:39:00,75.2,72.7,29.99,ENE,67,3.2,-999.0,92,-99.99,,,0.84,Acu-Link.com,2013-07-07 23:39:00,
2013-07-07 19:54:00,75.0,73.2,30.00,ENE,67,0.0,-999.0,94,-99.99,,,0.84,Acu-Link.com,2013-07-07 23:54:00,
2013-07-07 20:09:00,73.4,72.8,30.01,ESE,112,2.7,-999.0,98,-99.99,,,0.85,Acu-Link.com,2013-07-08 00:09:00,
2013-07-07 20:25:00,72.7,72.1,30.00,SW,225,0.0,-999.0,98,-99.99,,,1.08,Acu-Link.com,2013-07-08 00:25:00,
2013-07-07 20:40:00,72.3,71.7,30.00,ENE,67,0.0,-999.0,98,-99.99,,,1.27,Acu-Link.com,2013-07-08 00:40:00,
2013-07-07 20:55:00,71.8,71.2,30.00,NW,315,0.0,-999.0,98,-99.99,,,1.27,Acu-Link.com,2013-07-08 00:55:00,
2013-07-07 21:10:00,71.4,70.8,29.99,WNW,292,0.0,-999.0,98,-99.99,,,1.27,Acu-Link.com,2013-07-08 01:10:00,
2013-07-07 21:25:00,71.4,70.8,29.99,ESE,112,0.0,-999.0,98,-99.99,,,1.27,Acu-Link.com,2013-07-08 01:25:00,
2013-07-07 21:40:00,71.4,70.8,30.00,SW,225,0.0,-999.0,98,-99.99,,,1.27,Acu-Link.com,2013-07-08 01:40:00,
2013-07-07 21:56:00,71.4,70.8,30.01,East,90,0.0,-999.0,98,-99.99,,,1.27,Acu-Link.com,2013-07-08 01:56:00,
2013-07-07 22:11:00,71.4,70.8,30.02,ESE,112,0.0,-999.0,98,-99.99,,,1.27,Acu-Link.com,2013-07-08 02:11:00,
2013-07-07 22:26:00,71.4,70.8,30.03,NW,315,0.0,-999.0,98,-99.99,,,1.27,Acu-Link.com,2013-07-08 02:26:00,
2013-07-07 22:41:00,71.6,71.0,30.04,East,90,0.0,-999.0,98,-99.99,,,1.28,Acu-Link.com,2013-07-08 02:41:00,
2013-07-07 22:56:00,71.8,71.2,30.04,WSW,247,0.0,-999.0,98,-99.99,,,1.28,Acu-Link.com,2013-07-08 02:56:00,
2013-07-07 23:11:00,71.8,71.2,30.04,SSE,157,0.0,-999.0,98,-99.99,,,1.28,Acu-Link.com,2013-07-08 03:11:00,
2013-07-07 23:26:00,71.8,71.2,30.04,West,270,0.0,-999.0,98,-99.99,,,1.29,Acu-Link.com,2013-07-08 03:26:00,
2013-07-07 23:41:00,71.8,71.2,30.04,WNW,292,0.0,-999.0,98,-99.99,,,1.29,Acu-Link.com,2013-07-08 03:41:00,
2013-07-07 23:56:00,71.6,71.0,30.04,ESE,112,0.0,-999.0,98,-99.99,,,1.29,Acu-Link.com,2013-07-08 03:56:00,